Airport View

Enter AWOS ICAO identifier for current METAR.

ex. KFNL

KD57 192250Z AUTO 26014KT 10SM CLR 02/M02 A3009 RMK AO2 PWINO

20 Mar 2019 02:50

Other Area AWOS: KHZE - KDIK - KY19 - KBIS

TAF KDIK 192337Z 2000/2024 27014KT P6SM BKN180 FM200200 27015G23KT P6SM SCT200 FM200800 29012KT P6SM FEW230 FM201500 31008KT P6SM SCT028 FM202300 27005KT P6SM FEW060